createdAt,value
2023-04-17T00:01:11.683Z,23.33
2023-04-17T00:03:39.672Z,22.08
2023-04-17T00:06:07.628Z,22.10
2023-04-17T00:08:35.590Z,21.83
2023-04-17T00:11:07.934Z,20.98
2023-04-17T00:13:37.090Z,20.52
2023-04-17T00:16:04.861Z,21.15
2023-04-17T00:18:32.805Z,21.58
2023-04-17T00:21:00.462Z,20.67
2023-04-17T00:23:28.618Z,21.52
2023-04-17T00:25:56.269Z,22.13
2023-04-17T00:28:24.456Z,21.80
2023-04-17T00:30:52.409Z,21.63
2023-04-17T00:33:20.776Z,21.23
2023-04-17T00:35:49.001Z,21.83
2023-04-17T00:38:16.901Z,20.73
2023-04-17T00:40:47.405Z,21.95
2023-04-17T00:43:15.501Z,21.63
2023-04-17T00:45:43.216Z,21.23
2023-04-17T00:48:13.283Z,21.27
2023-04-17T00:50:42.040Z,20.98
2023-04-17T00:53:10.652Z,22.27
2023-04-17T00:55:41.492Z,21.08
2023-04-17T00:58:11.058Z,21.45
2023-04-17T01:00:38.968Z,21.30
2023-04-17T01:03:07.070Z,20.30
2023-04-17T01:05:36.123Z,22.13
2023-04-17T01:08:04.358Z,21.35
2023-04-17T01:10:32.157Z,21.33
2023-04-17T01:13:07.837Z,21.10
2023-04-17T01:15:37.074Z,21.42
2023-04-17T01:18:06.623Z,21.55
2023-04-17T01:20:34.893Z,20.80
2023-04-17T01:23:02.763Z,20.80
2023-04-17T01:25:31.244Z,20.73
2023-04-17T01:27:58.995Z,20.98
2023-04-17T01:30:29.099Z,20.95
2023-04-17T01:33:02.363Z,21.10
2023-04-17T01:35:30.596Z,22.20
2023-04-17T01:37:58.996Z,20.45
2023-04-17T01:40:27.086Z,21.98
2023-04-17T01:42:54.769Z,21.90
2023-04-17T01:45:22.756Z,21.17
2023-04-17T01:47:51.432Z,21.55
2023-04-17T01:50:19.530Z,21.60
2023-04-17T01:52:47.232Z,22.55
2023-04-17T01:55:15.137Z,21.67
2023-04-17T01:57:42.874Z,22.10
2023-04-17T02:00:11.259Z,22.48
2023-04-17T02:02:43.868Z,22.30
2023-04-17T02:05:12.217Z,21.70
2023-04-17T02:07:39.835Z,21.83
2023-04-17T02:10:08.427Z,22.27
2023-04-17T02:12:37.635Z,21.35
2023-04-17T02:15:06.128Z,21.88
2023-04-17T02:17:34.080Z,22.85
2023-04-17T02:20:02.223Z,22.15
2023-04-17T02:22:32.446Z,21.23
2023-04-17T02:25:00.408Z,21.60
2023-04-17T02:27:28.332Z,22.67
2023-04-17T02:29:56.665Z,23.02
2023-04-17T02:32:24.433Z,22.35
2023-04-17T02:34:53.110Z,22.00
2023-04-17T02:37:21.696Z,22.58
2023-04-17T02:39:50.616Z,22.60
2023-04-17T02:42:18.494Z,28.45
2023-04-17T02:44:49.105Z,29.70
2023-04-17T02:47:16.788Z,25.10
2023-04-17T02:49:44.889Z,26.42
2023-04-17T02:52:12.645Z,25.58
2023-04-17T02:54:40.631Z,24.08
2023-04-17T02:57:09.466Z,26.20
2023-04-17T02:59:37.481Z,32.13
2023-04-17T03:02:05.463Z,24.73
2023-04-17T03:04:34.615Z,23.63
2023-04-17T03:07:02.275Z,21.92
2023-04-17T03:09:31.050Z,21.70
2023-04-17T03:11:58.722Z,22.33
2023-04-17T03:14:26.636Z,22.33
2023-04-17T03:16:54.312Z,22.08
2023-04-17T03:19:22.335Z,22.23
2023-04-17T03:21:49.990Z,22.58
2023-04-17T03:24:17.857Z,22.92
2023-04-17T03:26:45.700Z,22.42
2023-04-17T03:29:19.372Z,22.08
2023-04-17T03:31:47.123Z,22.27
2023-04-17T03:34:15.338Z,22.45
2023-04-17T03:36:43.170Z,21.67
2023-04-17T03:39:11.471Z,23.15
2023-04-17T03:41:39.754Z,23.42
2023-04-17T03:44:09.199Z,22.25
2023-04-17T03:46:37.780Z,22.38
2023-04-17T03:49:06.333Z,23.02
2023-04-17T03:51:34.228Z,22.85
2023-04-17T03:54:10.843Z,22.75
2023-04-17T03:56:38.547Z,24.77
2023-04-17T03:59:06.966Z,24.90
2023-04-17T04:01:39.295Z,24.88
2023-04-17T04:04:28.163Z,24.90
2023-04-17T04:07:06.570Z,23.13
2023-04-17T04:09:35.966Z,23.83
2023-04-17T04:12:05.755Z,23.20
2023-04-17T04:14:41.865Z,22.95
2023-04-17T04:17:10.540Z,22.75
2023-04-17T04:19:39.780Z,23.45
2023-04-17T04:22:08.176Z,22.95
2023-04-17T04:24:45.684Z,22.52
2023-04-17T04:27:18.077Z,22.20
2023-04-17T04:29:48.922Z,22.60
2023-04-17T04:32:19.710Z,22.17
2023-04-17T04:34:48.649Z,21.50
2023-04-17T04:37:16.261Z,23.27
2023-04-17T04:39:47.353Z,22.15
2023-04-17T04:42:21.981Z,22.52
2023-04-17T04:45:19.137Z,22.52
2023-04-17T04:47:47.302Z,21.17
2023-04-17T04:50:15.581Z,22.95
2023-04-17T04:52:43.288Z,22.25
2023-04-17T04:55:24.661Z,22.17
2023-04-17T04:57:55.478Z,22.48
2023-04-17T05:00:25.114Z,21.33
2023-04-17T05:02:55.752Z,21.85
2023-04-17T05:05:26.203Z,21.25
2023-04-17T05:07:55.187Z,21.80
2023-04-17T05:10:26.798Z,21.58
2023-04-17T05:15:28.716Z,22.70
2023-04-17T05:17:57.085Z,20.25
2023-04-17T05:20:26.917Z,20.23
2023-04-17T05:22:57.684Z,20.02
2023-04-17T05:25:25.807Z,20.73
2023-04-17T05:27:55.566Z,19.05
2023-04-17T05:30:23.700Z,18.45
2023-04-17T05:33:01.018Z,19.48
2023-04-17T05:35:42.262Z,20.08
2023-04-17T05:38:09.976Z,19.13
2023-04-17T05:40:37.994Z,19.73
2023-04-17T05:43:09.678Z,19.10
2023-04-17T05:45:38.641Z,19.15
2023-04-17T05:48:09.739Z,18.75
2023-04-17T05:50:37.787Z,19.15
2023-04-17T05:53:07.049Z,17.90
2023-04-17T05:55:40.517Z,18.33
2023-04-17T05:58:23.263Z,18.17
2023-04-17T06:00:55.652Z,18.48
2023-04-17T06:03:24.443Z,16.60
2023-04-17T06:06:00.181Z,17.58
2023-04-17T06:08:28.170Z,16.60
2023-04-17T06:10:56.451Z,17.30
2023-04-17T06:13:24.648Z,17.83
2023-04-17T06:15:53.936Z,17.35
2023-04-17T06:18:21.611Z,17.13
2023-04-17T06:20:49.732Z,17.35
2023-04-17T06:23:17.448Z,17.05
2023-04-17T06:25:45.427Z,17.30
2023-04-17T06:28:13.505Z,17.30
2023-04-17T06:30:41.568Z,17.23
2023-04-17T06:33:09.950Z,16.40
2023-04-17T06:35:38.415Z,17.08
2023-04-17T06:38:17.751Z,16.65
2023-04-17T06:40:46.733Z,16.88
2023-04-17T06:43:16.941Z,18.58
2023-04-17T06:45:45.085Z,17.65
2023-04-17T06:48:12.792Z,17.63
2023-04-17T06:50:40.766Z,15.93
2023-04-17T06:53:08.474Z,15.52
2023-04-17T06:55:36.612Z,16.70
2023-04-17T06:58:05.083Z,16.70
2023-04-17T07:00:33.088Z,17.88
2023-04-17T07:03:01.758Z,16.73
2023-04-17T07:05:29.863Z,15.32
2023-04-17T07:07:57.625Z,15.70
2023-04-17T07:10:25.730Z,16.88
2023-04-17T07:12:53.478Z,14.68
2023-04-17T07:15:21.545Z,16.98
2023-04-17T07:17:49.207Z,17.08
2023-04-17T07:20:17.169Z,16.10
2023-04-17T07:22:44.931Z,17.27
2023-04-17T07:25:13.033Z,16.35
2023-04-17T07:27:40.733Z,17.02
2023-04-17T07:30:09.849Z,17.38
2023-04-17T07:32:37.626Z,16.50
2023-04-17T07:35:06.438Z,17.90
2023-04-17T07:37:36.980Z,14.98
2023-04-17T07:40:10.226Z,16.38
2023-04-17T07:42:38.274Z,15.65
2023-04-17T07:45:07.288Z,16.00
2023-04-17T07:47:35.097Z,16.33
2023-04-17T07:50:03.250Z,16.42
2023-04-17T07:52:31.165Z,15.75
2023-04-17T07:54:59.116Z,16.25
2023-04-17T07:57:26.842Z,16.35
2023-04-17T07:59:54.877Z,15.45
2023-04-17T08:02:22.872Z,15.50
2023-04-17T08:04:52.293Z,16.08
2023-04-17T08:07:20.325Z,16.48
2023-04-17T08:09:48.252Z,16.27
2023-04-17T08:12:15.926Z,15.48
2023-04-17T08:14:43.955Z,15.23
2023-04-17T08:17:11.818Z,15.75
2023-04-17T08:19:39.871Z,14.82
2023-04-17T08:22:08.256Z,14.95
2023-04-17T08:24:36.184Z,14.57
2023-04-17T08:27:05.229Z,13.40
2023-04-17T08:29:33.197Z,14.07
2023-04-17T08:32:14.120Z,14.35
2023-04-17T08:34:44.455Z,14.80
2023-04-17T08:37:12.168Z,14.43
2023-04-17T08:39:40.233Z,14.20
2023-04-17T08:42:15.382Z,14.18
2023-04-17T08:44:46.099Z,13.80
2023-04-17T08:47:14.845Z,13.57
2023-04-17T08:49:43.957Z,13.25
2023-04-17T08:52:12.178Z,14.50
2023-04-17T08:54:40.426Z,14.98
2023-04-17T08:57:08.301Z,13.98
2023-04-17T08:59:36.279Z,14.63
2023-04-17T09:02:06.861Z,14.18
2023-04-17T09:04:37.776Z,13.90
2023-04-17T09:07:07.075Z,13.88
2023-04-17T09:09:49.616Z,13.32
2023-04-17T09:12:18.709Z,13.45
2023-04-17T09:14:46.825Z,13.80
2023-04-17T09:17:19.150Z,13.63
2023-04-17T09:20:08.936Z,13.57
2023-04-17T09:22:40.238Z,12.80
2023-04-17T09:25:28.161Z,13.50
2023-04-17T09:28:08.630Z,13.45
2023-04-17T09:30:41.073Z,11.93
2023-04-17T09:33:11.838Z,12.60
2023-04-17T09:35:40.562Z,12.50
2023-04-17T09:38:08.449Z,12.77
2023-04-17T09:40:41.247Z,13.20
2023-04-17T09:43:10.802Z,12.50
2023-04-17T09:45:42.442Z,12.88
2023-04-17T09:48:12.848Z,12.90
2023-04-17T09:50:41.190Z,12.80
2023-04-17T09:53:09.446Z,12.70
2023-04-17T09:55:38.907Z,13.93
2023-04-17T09:58:08.078Z,12.80
2023-04-17T10:00:37.902Z,13.13
2023-04-17T10:03:07.323Z,12.65
2023-04-17T10:05:36.818Z,11.82
2023-04-17T10:08:05.727Z,13.07
2023-04-17T10:10:34.955Z,12.80
2023-04-17T10:13:11.214Z,13.45
2023-04-17T10:15:39.788Z,12.82
2023-04-17T10:18:24.849Z,13.70
2023-04-17T10:20:55.344Z,13.73
2023-04-17T10:23:30.252Z,12.95
2023-04-17T10:26:26.601Z,12.70
2023-04-17T10:28:56.007Z,13.25
2023-04-17T10:31:44.176Z,13.15
2023-04-17T10:34:39.299Z,13.23
2023-04-17T10:37:08.612Z,13.15
2023-04-17T10:39:56.812Z,12.98
2023-04-17T10:42:25.777Z,12.65
2023-04-17T10:44:59.744Z,12.52
2023-04-17T10:47:33.696Z,11.65
2023-04-17T10:50:04.408Z,11.40
2023-04-17T10:52:35.218Z,11.30
2023-04-17T10:55:20.749Z,11.00
2023-04-17T10:58:04.830Z,11.52
2023-04-17T11:00:50.340Z,12.98
2023-04-17T11:03:18.562Z,10.93
2023-04-17T11:05:47.622Z,13.75
2023-04-17T11:08:16.266Z,11.15
2023-04-17T11:10:44.157Z,10.52
2023-04-17T11:13:12.074Z,10.15
2023-04-17T11:15:39.767Z,9.82
2023-04-17T11:18:08.376Z,9.65
2023-04-17T11:20:37.959Z,9.90
2023-04-17T11:23:06.738Z,11.00
2023-04-17T11:25:34.990Z,10.50
2023-04-17T11:28:06.573Z,10.43
2023-04-17T11:30:36.280Z,9.23
2023-04-17T11:33:06.601Z,9.43
2023-04-17T11:35:39.646Z,9.25
2023-04-17T11:38:19.111Z,9.70
2023-04-17T11:40:53.466Z,9.23
2023-04-17T11:43:23.425Z,8.85
2023-04-17T11:45:59.236Z,9.25
2023-04-17T11:48:29.220Z,8.80
2023-04-17T11:51:03.891Z,9.70
2023-04-17T11:53:34.220Z,9.43
2023-04-17T11:56:19.307Z,9.60
2023-04-17T11:58:54.204Z,9.40
2023-04-17T12:01:25.483Z,9.20
2023-04-17T12:03:55.585Z,8.90
2023-04-17T12:06:27.915Z,8.70
2023-04-17T12:08:56.233Z,9.80
2023-04-17T12:11:24.778Z,9.15
2023-04-17T12:13:53.917Z,9.02
2023-04-17T12:16:22.595Z,8.60
2023-04-17T12:18:50.873Z,8.50
2023-04-17T12:21:20.648Z,7.38
2023-04-17T12:23:49.020Z,7.88
2023-04-17T12:26:16.689Z,7.07
2023-04-17T12:28:44.976Z,7.10
2023-04-17T12:31:12.875Z,7.43
2023-04-17T12:33:41.512Z,7.25
2023-04-17T12:36:09.822Z,7.10
2023-04-17T12:38:37.985Z,7.10
2023-04-17T12:41:05.815Z,7.40
2023-04-17T12:43:33.831Z,6.85
2023-04-17T12:46:02.325Z,6.68
2023-04-17T12:48:32.700Z,6.75
2023-04-17T12:51:00.848Z,6.40
2023-04-17T12:53:30.019Z,6.28
2023-04-17T12:55:58.287Z,6.10
2023-04-17T12:58:26.254Z,6.20
2023-04-17T13:00:53.967Z,6.57
2023-04-17T13:03:22.444Z,5.68
2023-04-17T13:05:52.780Z,5.93
2023-04-17T13:08:21.091Z,5.72
2023-04-17T13:10:48.745Z,5.95
2023-04-17T13:13:16.689Z,6.07
2023-04-17T13:15:47.419Z,6.43
2023-04-17T13:20:43.472Z,6.03
2023-04-17T13:23:12.013Z,6.35
2023-04-17T13:25:39.844Z,6.78
2023-04-17T13:28:07.803Z,6.07
2023-04-17T13:30:37.251Z,6.00
2023-04-17T13:33:05.648Z,6.18
2023-04-17T13:35:33.923Z,7.22
2023-04-17T13:38:03.191Z,6.80
2023-04-17T13:40:31.412Z,6.95
2023-04-17T13:43:00.440Z,7.10
2023-04-17T13:45:28.196Z,6.53
2023-04-17T13:47:56.230Z,6.82
2023-04-17T13:50:23.883Z,6.55
2023-04-17T13:52:51.764Z,6.82
2023-04-17T13:55:19.576Z,6.80
2023-04-17T13:57:47.538Z,6.88
2023-04-17T14:00:15.656Z,7.50
2023-04-17T14:02:43.730Z,7.15
2023-04-17T14:05:11.926Z,6.70
2023-04-17T14:07:40.048Z,7.47
2023-04-17T14:10:08.643Z,7.50
2023-04-17T14:12:36.686Z,8.13
2023-04-17T14:15:04.635Z,7.22
2023-04-17T14:17:32.648Z,7.03
2023-04-17T14:20:00.467Z,7.00
2023-04-17T14:22:28.367Z,7.22
2023-04-17T14:24:55.960Z,7.47
2023-04-17T14:27:23.900Z,6.90
2023-04-17T14:29:51.556Z,7.30
2023-04-17T14:32:19.620Z,7.20
2023-04-17T14:34:47.336Z,7.55
2023-04-17T14:37:15.301Z,7.82
2023-04-17T14:39:43.126Z,8.00
2023-04-17T14:42:10.983Z,7.60
2023-04-17T14:44:38.637Z,8.05
2023-04-17T14:47:07.255Z,7.65
2023-04-17T14:49:34.950Z,7.85
2023-04-17T14:52:02.903Z,7.97
2023-04-17T14:54:30.545Z,8.55
2023-04-17T14:56:58.670Z,8.23
2023-04-17T14:59:28.004Z,6.68
2023-04-17T15:01:56.261Z,6.65
2023-04-17T15:04:24.072Z,6.40
2023-04-17T15:06:52.373Z,6.97
2023-04-17T15:09:20.029Z,6.93
2023-04-17T15:11:48.014Z,6.75
2023-04-17T15:14:15.686Z,7.10
2023-04-17T15:16:43.761Z,6.68
2023-04-17T15:19:11.590Z,7.38
2023-04-17T15:21:39.718Z,6.72
2023-04-17T15:24:07.538Z,7.85
2023-04-17T15:26:35.621Z,7.72
2023-04-17T15:29:03.798Z,9.32
2023-04-17T15:31:31.797Z,7.75
2023-04-17T15:33:59.514Z,8.57
2023-04-17T15:36:33.958Z,10.18
2023-04-17T15:39:01.638Z,8.18
2023-04-17T15:41:29.601Z,7.90
2023-04-17T15:43:57.237Z,8.65
2023-04-17T15:46:25.278Z,7.88
2023-04-17T15:49:07.570Z,8.18
2023-04-17T15:51:36.039Z,8.00
2023-04-17T15:54:03.723Z,7.70
2023-04-17T15:56:31.666Z,7.65
2023-04-17T15:58:59.417Z,7.07
2023-04-17T16:01:28.627Z,6.97
2023-04-17T16:03:56.478Z,6.90
2023-04-17T16:06:24.580Z,7.38
2023-04-17T16:08:52.238Z,7.00
2023-04-17T16:11:20.573Z,7.05
2023-04-17T16:13:48.229Z,6.90
2023-04-17T16:16:16.190Z,7.05
2023-04-17T16:18:46.377Z,6.40
2023-04-17T16:21:14.655Z,6.30
2023-04-17T16:23:42.417Z,5.97
2023-04-17T16:26:13.360Z,6.20
2023-04-17T16:28:41.209Z,5.45
2023-04-17T16:31:09.751Z,6.05
2023-04-17T16:33:37.771Z,5.88
2023-04-17T16:36:05.872Z,5.10
2023-04-17T16:38:35.527Z,5.50
2023-04-17T16:41:04.346Z,5.90
2023-04-17T16:43:32.083Z,5.88
2023-04-17T16:46:03.303Z,5.68
2023-04-17T16:48:36.174Z,5.53
2023-04-17T16:51:05.271Z,6.60
2023-04-17T16:53:33.035Z,6.78
2023-04-17T16:56:00.981Z,6.60
2023-04-17T16:58:28.697Z,7.47
2023-04-17T17:00:56.835Z,6.43
2023-04-17T17:03:24.694Z,5.80
2023-04-17T17:05:52.849Z,5.53
2023-04-17T17:08:20.469Z,5.75
2023-04-17T17:10:50.082Z,5.63
2023-04-17T17:13:17.764Z,5.75
2023-04-17T17:15:45.768Z,5.78
2023-04-17T17:18:13.400Z,5.63
2023-04-17T17:20:41.670Z,5.85
2023-04-17T17:23:09.280Z,6.25
2023-04-17T17:25:37.313Z,6.35
2023-04-17T17:28:04.997Z,5.85
2023-04-17T17:30:33.012Z,6.55
2023-04-17T17:33:00.708Z,6.25
2023-04-17T17:35:28.661Z,5.93
2023-04-17T17:37:56.447Z,6.53
2023-04-17T17:40:24.500Z,6.47
2023-04-17T17:42:52.096Z,7.20
2023-04-17T17:45:20.138Z,5.97
2023-04-17T17:47:47.869Z,7.13
2023-04-17T17:50:15.922Z,7.20
2023-04-17T17:52:43.576Z,7.18
2023-04-17T17:55:15.514Z,7.45
2023-04-17T17:57:49.486Z,7.43
2023-04-17T18:00:18.109Z,7.40
2023-04-17T18:02:46.157Z,10.07
2023-04-17T18:05:14.508Z,9.27
2023-04-17T18:07:43.198Z,8.48
2023-04-17T18:10:11.414Z,8.32
2023-04-17T18:12:39.062Z,8.50
2023-04-17T18:15:07.668Z,8.35
2023-04-17T18:17:35.393Z,9.30
2023-04-17T18:20:03.606Z,9.05
2023-04-17T18:22:31.231Z,8.32
2023-04-17T18:24:59.210Z,8.68
2023-04-17T18:27:26.927Z,7.20
2023-04-17T18:29:54.861Z,7.82
2023-04-17T18:32:22.629Z,7.63
2023-04-17T18:34:51.309Z,7.60
2023-04-17T18:37:19.039Z,7.85
2023-04-17T18:39:47.089Z,7.85
2023-04-17T18:42:14.869Z,8.13
2023-04-17T18:44:42.893Z,8.60
2023-04-17T18:47:10.617Z,8.57
2023-04-17T18:49:38.569Z,7.45
2023-04-17T18:52:06.286Z,7.88
2023-04-17T18:54:35.142Z,7.22
2023-04-17T18:57:02.791Z,7.40
2023-04-17T18:59:31.038Z,6.68
2023-04-17T19:01:58.729Z,7.55
2023-04-17T19:04:26.845Z,8.15
2023-04-17T19:06:54.562Z,8.43
2023-04-17T19:09:22.468Z,7.85
2023-04-17T19:11:50.290Z,8.00
2023-04-17T19:14:18.259Z,8.73
2023-04-17T19:16:47.395Z,8.80
2023-04-17T19:19:15.701Z,8.88
2023-04-17T19:21:43.471Z,9.55
2023-04-17T19:24:11.419Z,12.50
2023-04-17T19:26:39.186Z,10.85
2023-04-17T19:29:07.176Z,11.02
2023-04-17T19:31:34.901Z,10.00
2023-04-17T19:34:03.012Z,11.02
2023-04-17T19:36:31.199Z,11.00
2023-04-17T19:38:59.880Z,12.23
2023-04-17T19:41:27.841Z,10.10
2023-04-17T19:43:55.808Z,10.57
2023-04-17T19:46:24.369Z,10.18
2023-04-17T19:48:52.674Z,10.32
2023-04-17T19:51:20.571Z,10.30
2023-04-17T19:53:48.510Z,11.73
2023-04-17T19:56:16.334Z,11.02
2023-04-17T19:58:44.438Z,12.15
2023-04-17T20:01:12.142Z,11.25
2023-04-17T20:03:42.172Z,11.68
2023-04-17T20:06:10.289Z,10.63
2023-04-17T20:08:38.206Z,11.15
2023-04-17T20:11:06.478Z,11.63
2023-04-17T20:13:34.559Z,11.55
2023-04-17T20:16:02.215Z,12.40
2023-04-17T20:18:30.423Z,12.77
2023-04-17T20:20:58.000Z,11.50
2023-04-17T20:23:26.058Z,11.15
2023-04-17T20:25:53.781Z,12.77
2023-04-17T20:28:22.931Z,12.32
2023-04-17T20:30:50.536Z,13.40
2023-04-17T20:33:18.603Z,12.30
2023-04-17T20:35:46.415Z,12.85
2023-04-17T20:38:14.356Z,13.75
2023-04-17T20:40:42.136Z,13.57
2023-04-17T20:43:10.133Z,12.40
2023-04-17T20:45:37.959Z,12.32
2023-04-17T20:48:05.976Z,14.02
2023-04-17T20:50:33.795Z,15.80
2023-04-17T20:53:01.924Z,14.10
2023-04-17T20:55:29.716Z,14.32
2023-04-17T20:57:57.622Z,14.63
2023-04-17T21:00:25.449Z,13.73
2023-04-17T21:02:53.720Z,11.90
2023-04-17T21:05:21.634Z,12.88
2023-04-17T21:07:51.359Z,12.35
2023-04-17T21:10:20.176Z,13.43
2023-04-17T21:12:48.202Z,12.88
2023-04-17T21:15:15.944Z,12.93
2023-04-17T21:17:47.863Z,14.30
2023-04-17T21:20:15.885Z,13.38
2023-04-17T21:22:43.769Z,13.35
2023-04-17T21:25:11.594Z,12.85
2023-04-17T21:27:41.418Z,14.15
2023-04-17T21:30:10.668Z,15.07
2023-04-17T21:32:40.607Z,16.67
2023-04-17T21:35:09.242Z,16.35
2023-04-17T21:37:37.201Z,17.73
2023-04-17T21:40:05.470Z,15.63
2023-04-17T21:42:33.436Z,16.58
2023-04-17T21:45:01.201Z,15.52
2023-04-17T21:47:29.282Z,16.40
2023-04-17T21:49:56.852Z,15.45
2023-04-17T21:52:24.725Z,15.90
2023-04-17T21:54:52.464Z,16.08
2023-04-17T21:57:20.450Z,17.27
2023-04-17T21:59:48.564Z,17.52
2023-04-17T22:02:16.526Z,18.20
2023-04-17T22:04:44.421Z,18.52
2023-04-17T22:07:12.489Z,18.73
2023-04-17T22:09:40.286Z,20.70
2023-04-17T22:12:17.755Z,19.33
2023-04-17T22:14:45.558Z,21.20
2023-04-17T22:17:13.827Z,20.90
2023-04-17T22:19:41.858Z,21.83
2023-04-17T22:23:06.357Z,21.70
2023-04-17T22:26:49.267Z,22.00
2023-04-17T22:30:31.430Z,19.42
2023-04-17T22:34:14.964Z,18.27
2023-04-17T22:37:57.855Z,17.17
2023-04-17T22:41:40.696Z,17.35
2023-04-17T22:45:23.362Z,16.45
2023-04-17T22:49:06.610Z,17.73
2023-04-17T22:52:48.834Z,16.70
2023-04-17T22:56:31.919Z,16.77
2023-04-17T23:00:14.536Z,17.35
2023-04-17T23:03:57.884Z,15.98
2023-04-17T23:07:40.172Z,17.30
2023-04-17T23:10:26.530Z,17.65
2023-04-17T23:12:54.270Z,18.25
2023-04-17T23:15:22.315Z,18.42
2023-04-17T23:17:49.965Z,18.02
2023-04-17T23:20:18.116Z,17.95
2023-04-17T23:22:45.753Z,18.55
2023-04-17T23:25:13.850Z,17.70
2023-04-17T23:27:41.522Z,17.00
2023-04-17T23:30:09.943Z,17.88
2023-04-17T23:32:37.734Z,17.85
2023-04-17T23:35:06.425Z,18.58
2023-04-17T23:37:34.064Z,17.15
2023-04-17T23:40:02.562Z,17.35
2023-04-17T23:42:30.472Z,16.67
2023-04-17T23:44:58.413Z,17.73
2023-04-17T23:47:26.116Z,15.93
2023-04-17T23:49:54.347Z,16.17
2023-04-17T23:52:21.954Z,17.80
2023-04-17T23:54:50.080Z,17.90
2023-04-17T23:57:18.046Z,17.02
2023-04-17T23:59:46.127Z,16.17
